LFPM 172200Z AUTO 16005KT CAVOK 17/17 Q1013

Sorties Club
Le Touquet Paris Plage

Remerciements a Kevin et Valentin pour l'organisation de cette sortie et aux instructeurs pour l'encadrement



Le Briefing photo Les Avions au Parking photo Sur le Tarmac du Touquet photo
Sur le Tarmac du Touquet photo Le Groupe photo Au Restaurant photo